Time,TemperatureF,DewpointF,PressureIn,WindDirection,WindDirectionDegrees,WindSpeedMPH,WindSpeedGustMPH,Humidity,HourlyPrecipIn,Conditions,Clouds,dailyrainin,SolarRadiationWatts/m^2,SoftwareType,DateUTC
2013-08-20 00:11:00,66.0,56.0,-100.00,WSW,247,0.0,4.0,69,0.00,,,0.00,1.000000,,2013-08-20 07:11:00,
2013-08-20 00:22:00,66.0,56.0,-100.00,WSW,247,0.0,4.0,69,0.00,,,0.00,1.000000,,2013-08-20 07:22:00,
2013-08-20 00:31:00,66.0,56.0,-100.00,WSW,247,0.0,4.0,69,0.00,,,0.00,1.000000,,2013-08-20 07:31:00,
2013-08-20 00:41:00,66.0,56.0,-100.00,WSW,247,0.0,4.0,69,0.00,,,0.00,1.000000,,2013-08-20 07:41:00,
2013-08-20 01:11:00,63.0,54.0,-100.00,ENE,66,0.0,1.0,73,0.00,,,0.00,0.000000,,2013-08-20 08:11:00,
2013-08-20 01:21:00,63.0,54.0,-100.00,ENE,66,0.0,1.0,73,0.00,,,0.00,0.000000,,2013-08-20 08:21:00,
2013-08-20 01:31:00,63.0,54.0,-100.00,ENE,66,0.0,1.0,73,0.00,,,0.00,0.000000,,2013-08-20 08:31:00,
2013-08-20 01:41:00,63.0,54.0,-100.00,ENE,66,0.0,1.0,73,0.00,,,0.00,0.000000,,2013-08-20 08:41:00,
2013-08-20 03:22:00,66.0,54.0,-100.00,West,262,0.0,3.0,66,-99.99,,,0.00,0.000000,,2013-08-20 10:22:00,
2013-08-20 03:32:00,66.0,54.0,-100.00,West,262,0.0,3.0,66,-99.99,,,0.00,0.000000,,2013-08-20 10:32:00,
2013-08-20 04:11:00,64.0,54.0,-100.00,WSW,256,3.0,4.0,70,-99.99,,,-99.99,0.000000,,2013-08-20 11:11:00,
2013-08-20 08:22:00,64.0,55.0,-100.00,ENE,77,4.0,8.0,72,-99.99,,,0.00,152.000000,,2013-08-20 15:22:00,
2013-08-20 08:34:00,64.0,55.0,-100.00,ENE,77,4.0,8.0,72,-99.99,,,0.00,152.000000,,2013-08-20 15:34:00,
2013-08-20 08:43:00,64.0,55.0,-100.00,ENE,77,4.0,8.0,72,-99.99,,,0.00,152.000000,,2013-08-20 15:43:00,
2013-08-20 09:15:00,66.0,56.0,-100.00,NNE,32,1.0,5.0,69,0.00,,,0.00,356.000000,,2013-08-20 16:15:00,
2013-08-20 09:30:00,-999.0,-99.9,-100.00,NNE,32,1.0,5.0,69,0.00,,,0.00,356.000000,,2013-08-20 16:30:00,
2013-08-20 09:39:00,66.0,56.0,-100.00,NNE,32,1.0,5.0,69,0.00,,,0.00,356.000000,,2013-08-20 16:39:00,
2013-08-20 10:12:00,63.0,53.0,-100.00,WSW,244,2.0,5.0,69,0.00,,,0.00,551.000000,,2013-08-20 17:12:00,
2013-08-20 10:24:00,63.0,53.0,-100.00,WSW,244,2.0,5.0,69,0.00,,,0.00,551.000000,,2013-08-20 17:24:00,
2013-08-20 10:34:00,63.0,53.0,-100.00,WSW,244,2.0,5.0,69,0.00,,,0.00,551.000000,,2013-08-20 17:34:00,
2013-08-20 10:43:00,63.0,53.0,-100.00,WSW,244,2.0,5.0,69,0.00,,,0.00,551.000000,,2013-08-20 17:43:00,
2013-08-20 11:12:00,64.0,57.0,-100.00,West,260,10.0,14.0,78,0.00,,,0.00,721.000000,,2013-08-20 18:12:00,
2013-08-20 11:22:00,64.0,57.0,-100.00,West,260,10.0,14.0,78,0.00,,,0.00,721.000000,,2013-08-20 18:22:00,
2013-08-20 11:33:00,64.0,57.0,-100.00,West,260,10.0,14.0,78,0.00,,,0.00,721.000000,,2013-08-20 18:33:00,
2013-08-20 11:43:00,64.0,57.0,-100.00,West,260,10.0,14.0,78,0.00,,,0.00,721.000000,,2013-08-20 18:43:00,
2013-08-20 12:11:00,70.0,57.0,-100.00,West,261,12.0,16.0,63,-99.99,,,0.00,841.000000,,2013-08-20 19:11:00,
2013-08-20 12:21:00,70.0,57.0,-100.00,West,261,12.0,16.0,63,-99.99,,,0.00,841.000000,,2013-08-20 19:21:00,
2013-08-20 12:32:00,70.0,57.0,-100.00,West,261,12.0,16.0,63,-99.99,,,0.00,841.000000,,2013-08-20 19:32:00,
2013-08-20 13:12:00,76.0,57.0,-100.00,West,271,13.0,18.0,52,-99.99,,,0.00,910.000000,,2013-08-20 20:12:00,
2013-08-20 13:21:00,76.0,57.0,-100.00,West,271,13.0,18.0,52,-99.99,,,0.00,910.000000,,2013-08-20 20:21:00,
2013-08-20 13:32:00,76.0,57.0,-100.00,West,271,13.0,18.0,52,-99.99,,,0.00,910.000000,,2013-08-20 20:32:00,
2013-08-20 13:42:00,76.0,57.0,-100.00,West,271,13.0,18.0,52,-99.99,,,0.00,910.000000,,2013-08-20 20:42:00,
2013-08-20 14:22:00,83.0,56.0,-100.00,WNW,289,13.0,19.0,40,0.00,,,0.00,918.000000,,2013-08-20 21:22:00,
2013-08-20 14:34:00,83.0,56.0,-100.00,WNW,289,13.0,19.0,40,0.00,,,0.00,918.000000,,2013-08-20 21:34:00,
2013-08-20 14:44:00,83.0,56.0,-100.00,WNW,289,13.0,19.0,40,0.00,,,0.00,918.000000,,2013-08-20 21:44:00,
2013-08-20 15:42:00,85.0,55.0,-100.00,WNW,287,12.0,20.0,36,0.00,,,0.00,865.000000,,2013-08-20 22:42:00,
2013-08-20 16:12:00,84.0,52.0,-100.00,WSW,255,11.0,19.0,33,0.00,,,0.00,759.000000,,2013-08-20 23:12:00,
2013-08-20 16:22:00,84.0,52.0,-100.00,WSW,255,11.0,19.0,33,0.00,,,0.00,759.000000,,2013-08-20 23:22:00,
2013-08-20 16:33:00,84.0,52.0,-100.00,WSW,255,11.0,19.0,33,0.00,,,0.00,759.000000,,2013-08-20 23:33:00,
2013-08-20 16:42:00,84.0,52.0,-100.00,WSW,255,11.0,19.0,33,0.00,,,0.00,759.000000,,2013-08-20 23:42:00,
2013-08-20 17:12:00,79.0,54.0,-100.00,West,276,14.0,21.0,42,0.00,,,0.00,603.000000,,2013-08-21 00:12:00,
2013-08-20 17:22:00,79.0,54.0,-100.00,West,276,14.0,21.0,42,0.00,,,0.00,603.000000,,2013-08-21 00:22:00,
2013-08-20 17:32:00,79.0,54.0,-100.00,West,276,14.0,21.0,42,0.00,,,0.00,603.000000,,2013-08-21 00:32:00,
2013-08-20 17:42:00,79.0,54.0,-100.00,West,276,14.0,21.0,42,0.00,,,0.00,603.000000,,2013-08-21 00:42:00,
2013-08-20 18:11:00,77.0,54.0,-100.00,West,277,13.0,18.0,45,0.00,,,0.00,421.000000,,2013-08-21 01:11:00,
2013-08-20 18:21:00,77.0,54.0,-100.00,West,277,13.0,18.0,45,0.00,,,0.00,421.000000,,2013-08-21 01:21:00,
2013-08-20 18:32:00,77.0,54.0,-100.00,West,277,13.0,18.0,45,0.00,,,0.00,421.000000,,2013-08-21 01:32:00,
2013-08-20 18:42:00,77.0,54.0,-100.00,West,277,13.0,18.0,45,0.00,,,0.00,421.000000,,2013-08-21 01:42:00,
2013-08-20 19:12:00,72.0,54.0,-100.00,West,270,11.0,17.0,53,0.00,,,0.00,223.000000,,2013-08-21 02:12:00,
2013-08-20 19:22:00,72.0,54.0,-100.00,West,270,11.0,17.0,53,0.00,,,0.00,223.000000,,2013-08-21 02:22:00,
2013-08-20 19:32:00,72.0,54.0,-100.00,West,270,11.0,17.0,53,0.00,,,0.00,223.000000,,2013-08-21 02:32:00,
2013-08-20 19:42:00,72.0,54.0,-100.00,West,270,11.0,17.0,53,0.00,,,0.00,223.000000,,2013-08-21 02:42:00,
2013-08-20 20:12:00,71.0,52.0,-100.00,WSW,243,10.0,14.0,51,0.00,,,0.00,45.000000,,2013-08-21 03:12:00,
2013-08-20 20:23:00,71.0,52.0,-100.00,WSW,243,10.0,14.0,51,0.00,,,0.00,45.000000,,2013-08-21 03:23:00,
2013-08-20 20:35:00,71.0,52.0,-100.00,WSW,243,10.0,14.0,51,0.00,,,0.00,45.000000,,2013-08-21 03:35:00,
2013-08-20 20:44:00,71.0,52.0,-100.00,WSW,243,10.0,14.0,51,0.00,,,0.00,45.000000,,2013-08-21 03:44:00,
2013-08-20 21:24:00,69.0,51.0,-100.00,SW,235,9.0,13.0,53,0.00,,,0.00,1.000000,,2013-08-21 04:24:00,
2013-08-20 21:33:00,69.0,51.0,-100.00,SW,235,9.0,13.0,53,0.00,,,0.00,1.000000,,2013-08-21 04:33:00,
2013-08-20 21:44:00,69.0,51.0,-100.00,SW,235,9.0,13.0,53,0.00,,,0.00,1.000000,,2013-08-21 04:44:00,
2013-08-20 22:13:00,66.0,53.0,-100.00,SW,232,10.0,12.0,62,0.00,,,0.00,1.000000,,2013-08-21 05:13:00,
2013-08-20 22:22:00,66.0,53.0,-100.00,SW,232,10.0,12.0,62,0.00,,,0.00,1.000000,,2013-08-21 05:22:00,
2013-08-20 22:33:00,66.0,53.0,-100.00,SW,232,10.0,12.0,62,0.00,,,0.00,1.000000,,2013-08-21 05:33:00,
2013-08-20 22:43:00,66.0,53.0,-100.00,SW,232,10.0,12.0,62,0.00,,,0.00,1.000000,,2013-08-21 05:43:00,
2013-08-20 23:12:00,67.0,53.0,-100.00,WSW,237,4.0,11.0,61,0.00,,,0.00,0.000000,,2013-08-21 06:12:00,
2013-08-20 23:22:00,67.0,53.0,-100.00,WSW,237,4.0,11.0,61,0.00,,,0.00,0.000000,,2013-08-21 06:22:00,
2013-08-20 23:32:00,67.0,53.0,-100.00,WSW,237,4.0,11.0,61,0.00,,,0.00,0.000000,,2013-08-21 06:32:00,
2013-08-20 23:42:00,67.0,53.0,-100.00,WSW,237,4.0,11.0,61,0.00,,,0.00,0.000000,,2013-08-21 06:42:00,